Time;durP1;ratioP1;P1;durP2;ratioP2;P2;SDS_P1;SDS_P2;PMS_P1;PMS_P2;Temp;Humidity;BMP_temperature;BMP_pressure;BME280_temperature;BME280_humidity;BME280_pressure;Samples;Min_cycle;Max_cycle;Signal;HPM_P1;HPM_P2
2021/11/30 00:01:09;;;;;;;12.00;6.40;;;;;;;2.09;87.29;98747.38;88280;1271;89168;-59
2021/11/30 00:03:20;;;;;;;12.10;6.60;;;;;;;2.10;87.32;98747.98;88090;1278;284885;-65
2021/11/30 00:05:30;;;;;;;11.40;6.60;;;;;;;2.09;87.33;98749.64;88198;1280;82813;-65
2021/11/30 00:07:40;;;;;;;12.70;7.50;;;;;;;2.10;87.51;98756.33;88332;1270;80166;-62
2021/11/30 00:12:25;;;;;;;8.60;4.80;;;;;;;2.16;87.36;98758.98;88298;1277;87619;-64
2021/11/30 00:14:37;;;;;;;7.20;5.20;;;;;;;2.19;87.05;98764.13;88320;1270;93747;-65
2021/11/30 00:16:47;;;;;;;9.40;5.30;;;;;;;2.18;87.15;98768.84;88302;1277;79111;-64
2021/11/30 00:18:58;;;;;;;9.30;5.70;;;;;;;2.13;87.19;98773.15;88314;1275;81988;-63
2021/11/30 00:21:14;;;;;;;9.30;5.70;;;;;;;2.12;87.32;98778.05;88305;1278;99055;-63
2021/11/30 00:23:26;;;;;;;8.10;5.20;;;;;;;2.13;87.17;98783.35;88306;1280;87300;-63
2021/11/30 00:25:37;;;;;;;8.20;6.40;;;;;;;2.14;87.27;98788.84;88325;1278;92969;-66
2021/11/30 00:27:52;;;;;;;9.90;6.10;;;;;;;2.14;87.20;98788.70;88244;1277;80228;-64
2021/11/30 00:30:03;;;;;;;8.00;5.80;;;;;;;2.12;87.01;98790.85;88323;1277;81219;-62
2021/11/30 00:32:15;;;;;;;8.20;5.20;;;;;;;2.12;87.41;98795.44;88320;1271;99099;-65
2021/11/30 00:34:26;;;;;;;10.40;6.30;;;;;;;2.15;87.31;98800.25;88328;1275;87510;-62
2021/11/30 00:36:38;;;;;;;8.90;5.90;;;;;;;2.16;87.31;98799.78;88338;1277;94586;-65
2021/11/30 00:38:52;;;;;;;8.50;5.30;;;;;;;2.22;87.07;98809.43;88292;1278;80439;-64
2021/11/30 00:41:01;;;;;;;;;;;;;;;2.22;87.09;98811.23;88334;1271;82828;-64
2021/11/30 00:43:18;;;;;;;11.90;7.30;;;;;;;2.19;87.15;98815.80;88299;1277;98134;-62
2021/11/30 00:45:40;;;;;;;11.10;7.20;;;;;;;2.21;87.07;98822.16;88297;1274;89453;-62
2021/11/30 00:47:53;;;;;;;11.60;7.90;;;;;;;2.24;86.90;98828.41;88240;1280;94541;-63
2021/11/30 00:50:08;;;;;;;10.90;7.20;;;;;;;2.24;86.83;98834.33;88241;1261;79641;-62
2021/11/30 00:52:21;;;;;;;12.00;8.00;;;;;;;2.24;86.94;98837.76;88295;1270;81005;-62
2021/11/30 00:54:32;;;;;;;13.00;8.00;;;;;;;2.23;86.88;98841.97;88272;1278;99929;-65
2021/11/30 00:56:49;;;;;;;7.70;5.40;;;;;;;2.21;86.87;98843.41;88263;1277;88569;-62
2021/11/30 00:59:00;;;;;;;8.40;5.10;;;;;;;2.25;86.90;98842.24;88246;1277;94884;-64
2021/11/30 01:01:10;;;;;;;10.40;6.90;;;;;;;2.19;86.75;98841.35;88280;1274;80033;-65
2021/11/30 01:03:24;;;;;;;8.90;5.80;;;;;;;2.16;86.84;98840.50;88263;1280;80853;-64
2021/11/30 01:05:34;;;;;;;20.70;10.80;;;;;;;2.14;86.89;98841.64;88247;1273;97868;-66
2021/11/30 01:07:46;;;;;;;24.90;14.30;;;;;;;2.15;86.78;98844.63;88276;1273;87632;-63
2021/11/30 01:09:57;;;;;;;22.20;11.40;;;;;;;2.17;86.65;98839.70;88282;1276;93511;-62
2021/11/30 01:12:09;;;;;;;18.90;10.40;;;;;;;2.15;86.67;98848.52;88269;1272;81545;-64
2021/11/30 01:14:21;;;;;;;20.20;11.50;;;;;;;2.15;86.99;98849.16;88278;1274;79700;-65
2021/11/30 01:16:33;;;;;;;16.80;9.60;;;;;;;2.16;86.91;98852.35;88293;1278;98007;-63
2021/11/30 01:18:44;;;;;;;16.60;9.50;;;;;;;2.21;86.50;98858.91;88244;1281;88398;-64
2021/11/30 01:20:59;;;;;;;19.70;10.20;;;;;;;2.16;86.54;98859.51;88256;1279;94948;-62
2021/11/30 01:23:11;;;;;;;19.50;10.00;;;;;;;2.11;86.55;98864.62;88248;1279;79275;-64
2021/11/30 01:25:21;;;;;;;21.00;11.70;;;;;;;2.06;86.45;98860.29;88275;1272;81189;-64
2021/11/30 01:27:32;;;;;;;10.50;6.00;;;;;;;2.02;86.33;98865.02;88283;1271;96685;-64
2021/11/30 01:29:43;;;;;;;12.40;8.30;;;;;;;2.01;86.34;98864.92;88295;1276;87002;-61
2021/11/30 01:31:55;;;;;;;11.10;7.50;;;;;;;1.98;86.44;98864.39;88257;1280;95262;-61
2021/11/30 01:34:06;;;;;;;12.90;7.80;;;;;;;1.92;86.49;98861.50;88254;1277;79424;-65
2021/11/30 01:36:17;;;;;;;10.20;6.90;;;;;;;1.89;86.11;98862.41;88274;1277;81787;-62
2021/11/30 01:38:27;;;;;;;11.60;7.10;;;;;;;1.90;86.19;98867.84;88291;1277;97928;-62
2021/11/30 01:40:40;;;;;;;8.10;5.10;;;;;;;1.83;86.11;98865.77;88292;1280;88100;-65
2021/11/30 01:42:52;;;;;;;9.30;6.80;;;;;;;1.86;85.93;98868.98;88271;1276;95854;-65
2021/11/30 01:45:07;;;;;;;11.70;7.20;;;;;;;1.85;86.07;98877.90;88262;1272;80705;-65
2021/11/30 01:47:35;;;;;;;8.70;6.10;;;;;;;1.75;85.78;98874.08;88295;1273;82280;-62
2021/11/30 01:49:45;;;;;;;7.00;4.20;;;;;;;1.73;86.03;98875.39;88275;1280;99507;-62
2021/11/30 01:51:54;;;;;;;6.40;4.30;;;;;;;1.74;85.76;98881.48;88275;1275;88105;-64
2021/11/30 01:54:04;;;;;;;7.90;5.70;;;;;;;1.73;85.97;98885.05;88303;1272;95345;-64
2021/11/30 01:56:14;;;;;;;7.70;4.80;;;;;;;1.76;85.86;98885.48;88344;1278;80962;-62
2021/11/30 01:58:24;;;;;;;5.60;3.90;;;;;;;1.81;85.97;98887.10;88323;1278;80733;-61
2021/11/30 02:00:37;;;;;;;7.30;4.50;;;;;;;1.84;85.98;98883.77;88311;1270;96726;-62
2021/11/30 02:02:47;;;;;;;7.20;5.10;;;;;;;1.81;85.80;98885.98;88290;1279;88733;-66
2021/11/30 02:04:57;;;;;;;10.50;5.20;;;;;;;1.77;85.74;98887.84;88279;1270;92238;-65
2021/11/30 02:07:08;;;;;;;6.70;4.90;;;;;;;1.70;85.57;98889.73;88289;1277;77949;-65
2021/11/30 02:09:22;;;;;;;7.50;5.20;;;;;;;1.68;85.55;98892.45;88315;1278;81954;-66
2021/11/30 02:11:32;;;;;;;8.40;5.00;;;;;;;1.60;85.81;98893.89;88300;1271;98471;-65
2021/11/30 02:13:42;;;;;;;7.10;5.10;;;;;;;1.59;85.56;98894.51;88204;1281;87292;-65
2021/11/30 02:15:54;;;;;;;6.10;4.00;;;;;;;1.56;85.61;98889.53;88291;1278;95237;-63
2021/11/30 02:18:12;;;;;;;5.20;3.90;;;;;;;1.57;85.64;98893.23;88296;1271;80209;-62
2021/11/30 02:20:23;;;;;;;5.80;4.00;;;;;;;1.60;85.59;98893.99;88287;1277;84611;-62
2021/11/30 02:22:33;;;;;;;5.00;4.50;;;;;;;1.62;85.74;98892.98;88317;1274;97846;-62
2021/11/30 02:24:43;;;;;;;6.10;4.00;;;;;;;1.64;85.86;98899.09;88303;1277;88435;-61
2021/11/30 02:26:53;;;;;;;5.60;4.00;;;;;;;1.66;85.65;98894.20;88289;1277;95491;-65
2021/11/30 02:29:05;;;;;;;4.70;3.60;;;;;;;1.60;85.77;98897.42;88308;1276;78626;-65
2021/11/30 02:31:18;;;;;;;7.60;4.50;;;;;;;1.65;85.83;98896.25;88345;1277;82009;-62
2021/11/30 02:33:28;;;;;;;5.80;4.20;;;;;;;1.65;85.98;98895.55;88306;1279;98979;-62
2021/11/30 02:35:38;;;;;;;9.00;5.10;;;;;;;1.63;85.77;98900.73;88332;1277;88182;-62
2021/11/30 02:37:51;;;;;;;6.80;4.10;;;;;;;1.65;85.75;98898.28;88302;1277;93846;-62
2021/11/30 02:40:04;;;;;;;6.30;4.20;;;;;;;1.62;85.65;98895.80;88326;1267;76593;-62
2021/11/30 02:42:14;;;;;;;9.50;4.60;;;;;;;1.59;85.60;98901.19;88309;1278;82409;-60
2021/11/30 02:44:26;;;;;;;6.90;3.90;;;;;;;1.56;85.73;98906.19;88280;1277;98290;-62
2021/11/30 02:46:39;;;;;;;6.10;4.10;;;;;;;1.52;85.62;98902.00;88319;1280;88674;-62
2021/11/30 02:48:52;;;;;;;5.50;3.90;;;;;;;1.53;85.58;98905.64;88259;1277;94962;-62
2021/11/30 02:51:06;;;;;;;5.10;3.00;;;;;;;1.53;85.68;98909.02;88288;1268;78873;-64
2021/11/30 02:53:20;;;;;;;4.50;3.50;;;;;;;1.57;85.70;98914.27;88289;1277;84018;-64
2021/11/30 02:55:30;;;;;;;5.00;3.20;;;;;;;1.61;85.53;98910.04;88280;1273;98475;-64
2021/11/30 02:57:40;;;;;;;6.30;3.90;;;;;;;1.60;85.74;98914.79;88344;1279;86954;-62
2021/11/30 02:59:51;;;;;;;5.00;3.90;;;;;;;1.63;85.55;98922.64;88286;1277;95305;-62
2021/11/30 03:02:02;;;;;;;4.80;3.40;;;;;;;1.64;85.52;98918.08;88317;1278;78740;-61
2021/11/30 03:04:17;;;;;;;3.80;3.00;;;;;;;1.58;85.49;98920.16;88333;1276;80557;-62
2021/11/30 03:06:26;;;;;;;4.90;3.60;;;;;;;1.58;85.53;98926.04;88322;1271;97865;-64
2021/11/30 03:08:41;;;;;;;4.70;3.60;;;;;;;1.57;85.34;98930.20;88299;1279;89207;-65
2021/11/30 03:10:52;;;;;;;4.80;3.50;;;;;;;1.56;85.54;98931.37;88282;1277;92850;-63
2021/11/30 03:13:01;;;;;;;4.60;3.20;;;;;;;1.53;85.31;98931.90;88286;1277;80861;-62
2021/11/30 03:15:19;;;;;;;5.30;3.30;;;;;;;1.50;85.55;98937.92;88299;1277;83352;-62
2021/11/30 03:17:29;;;;;;;5.00;3.10;;;;;;;1.49;85.52;98939.65;88294;1277;98740;-64
2021/11/30 03:19:38;;;;;;;5.00;2.90;;;;;;;1.47;85.59;98940.21;88333;1277;87552;-69
2021/11/30 03:21:48;;;;;;;5.20;3.20;;;;;;;1.53;85.67;98939.13;88324;1280;93674;-62
2021/11/30 03:23:58;;;;;;;3.80;3.20;;;;;;;1.61;85.39;98939.31;88297;1278;79900;-62
2021/11/30 03:26:07;;;;;;;4.60;3.00;;;;;;;1.62;85.58;98939.90;88333;1277;80715;-62
2021/11/30 03:28:17;;;;;;;4.80;2.80;;;;;;;1.63;85.53;98935.05;88304;1280;98514;-62
2021/11/30 03:30:26;;;;;;;5.80;4.30;;;;;;;1.61;85.41;98943.04;88317;1279;87789;-62
2021/11/30 03:35:09;;;;;;;7.50;4.20;;;;;;;1.50;85.19;98947.10;88171;1280;77873;-65
2021/11/30 03:37:19;;;;;;;7.00;3.60;;;;;;;1.45;85.30;98943.92;88205;1281;80566;-61
2021/11/30 03:39:30;;;;;;;5.30;3.50;;;;;;;1.43;85.05;98942.45;88162;1280;98174;-61
2021/11/30 03:41:41;;;;;;;5.50;3.70;;;;;;;1.43;85.09;98945.48;88200;1283;88247;-65
2021/11/30 03:43:50;;;;;;;5.70;3.90;;;;;;;1.43;85.10;98942.98;88163;1280;94851;-65
2021/11/30 03:45:59;;;;;;;6.60;4.70;;;;;;;1.40;84.95;98946.11;88136;1277;81855;-61
2021/11/30 03:48:09;;;;;;;7.20;4.20;;;;;;;1.42;85.11;98948.38;88252;1277;80588;-61
2021/11/30 03:50:19;;;;;;;7.80;3.70;;;;;;;1.41;85.13;98948.80;88305;1277;97173;-62
2021/11/30 03:52:28;;;;;;;5.60;3.70;;;;;;;1.44;85.03;98948.54;88335;1272;86913;-62
2021/11/30 03:54:38;;;;;;;7.00;4.10;;;;;;;1.43;85.16;98959.58;88315;1277;94683;-62
2021/11/30 03:56:48;;;;;;;8.50;4.50;;;;;;;1.44;85.06;98954.91;88330;1278;78594;-65
2021/11/30 03:58:58;;;;;;;6.90;4.30;;;;;;;1.45;85.02;98959.91;88305;1282;82801;-64
2021/11/30 04:01:08;;;;;;;5.80;4.10;;;;;;;1.46;84.97;98960.02;88318;1277;96186;-62
2021/11/30 04:03:17;;;;;;;7.90;5.20;;;;;;;1.43;85.05;98958.68;88319;1277;87654;-62
2021/11/30 04:05:27;;;;;;;7.30;3.90;;;;;;;1.43;84.84;98956.71;88251;1277;95552;-63
2021/11/30 04:07:36;;;;;;;20.00;12.90;;;;;;;1.52;84.97;98957.52;88333;1277;79451;-66
2021/11/30 04:09:45;;;;;;;8.00;5.60;;;;;;;1.50;84.76;98955.45;88290;1278;81946;-66
2021/11/30 04:11:56;;;;;;;7.00;4.60;;;;;;;1.51;84.90;98954.29;88286;1272;99398;-62
2021/11/30 04:14:05;;;;;;;6.60;4.10;;;;;;;1.54;84.91;98959.65;88310;1277;89233;-60
2021/11/30 04:16:14;;;;;;;5.80;3.00;;;;;;;1.56;84.62;98959.90;88308;1278;94255;-67
2021/11/30 04:18:24;;;;;;;8.10;5.00;;;;;;;1.50;84.51;98961.67;88306;1278;78225;-65
2021/11/30 04:20:33;;;;;;;7.30;3.90;;;;;;;1.48;84.54;98961.72;88315;1277;81777;-65
2021/11/30 04:22:44;;;;;;;6.50;4.40;;;;;;;1.49;84.50;98962.10;88308;1285;98124;-65
2021/11/30 04:24:53;;;;;;;6.80;3.90;;;;;;;1.45;84.44;98961.14;88288;1278;89244;-65
2021/11/30 04:27:03;;;;;;;8.30;5.00;;;;;;;1.45;84.37;98961.90;88318;1277;93860;-62
2021/11/30 04:29:12;;;;;;;8.00;4.10;;;;;;;1.43;84.19;98965.50;88299;1277;80781;-61
2021/11/30 04:31:25;;;;;;;7.70;4.90;;;;;;;1.41;84.29;98968.85;88345;1284;83104;-61
2021/11/30 04:33:34;;;;;;;12.00;6.80;;;;;;;1.36;84.40;98972.12;88308;1281;96896;-63
2021/11/30 04:35:44;;;;;;;8.40;4.30;;;;;;;1.31;84.21;98976.17;88312;1277;89135;-61
2021/11/30 04:37:53;;;;;;;6.80;3.80;;;;;;;1.31;84.29;98972.27;88265;1275;95716;-61
2021/11/30 04:40:06;;;;;;;13.80;6.20;;;;;;;1.31;83.99;98972.78;88293;1277;77824;-62
2021/11/30 04:42:15;;;;;;;36.20;14.70;;;;;;;1.29;84.20;98973.18;88350;1277;82806;-61
2021/11/30 04:44:27;;;;;;;11.50;5.90;;;;;;;1.25;84.13;98973.64;88299;1279;97968;-62
2021/11/30 04:46:47;;;;;;;9.60;5.20;;;;;;;1.21;84.17;98974.44;88275;1276;86856;-62
2021/11/30 04:48:59;;;;;;;7.50;4.60;;;;;;;1.17;84.14;98973.98;88300;1283;95113;-61
2021/11/30 04:51:12;;;;;;;6.20;4.30;;;;;;;1.15;84.05;98974.20;88309;1270;77603;-66
2021/11/30 04:53:25;;;;;;;4.50;3.00;;;;;;;1.09;84.27;98972.85;88287;1275;81246;-65
2021/11/30 04:55:35;;;;;;;4.00;2.50;;;;;;;1.08;84.20;98971.92;88294;1272;98489;-64
2021/11/30 04:57:44;;;;;;;3.50;2.70;;;;;;;1.12;84.15;98972.03;88280;1272;88299;-61
2021/11/30 04:59:54;;;;;;;4.40;2.40;;;;;;;1.10;84.26;98975.58;88289;1281;95380;-61
2021/11/30 05:02:04;;;;;;;3.70;2.00;;;;;;;1.13;84.21;98974.92;88331;1277;78240;-65
2021/11/30 05:04:17;;;;;;;3.70;2.40;;;;;;;1.17;83.99;98978.78;88293;1275;80718;-65
2021/11/30 05:06:26;;;;;;;4.00;2.50;;;;;;;1.18;84.12;98984.38;88311;1277;99299;-65
2021/11/30 05:08:36;;;;;;;4.30;2.70;;;;;;;1.26;84.27;98984.73;88328;1279;88966;-68
2021/11/30 05:10:46;;;;;;;5.10;2.60;;;;;;;1.28;84.01;98986.08;88216;1282;94855;-66
2021/11/30 05:12:55;;;;;;;3.80;2.90;;;;;;;1.28;84.00;98986.98;88298;1270;77396;-62
2021/11/30 05:15:05;;;;;;;3.10;2.50;;;;;;;1.27;84.11;98990.63;88331;1274;81139;-63
2021/11/30 05:17:14;;;;;;;4.60;2.60;;;;;;;1.23;83.93;98991.05;88291;1278;98678;-62
2021/11/30 05:19:23;;;;;;;3.10;2.60;;;;;;;1.12;83.86;98993.33;88304;1278;87586;-62
2021/11/30 05:21:33;;;;;;;5.70;3.80;;;;;;;1.07;83.82;98996.14;88272;1278;93998;-66
2021/11/30 05:23:42;;;;;;;19.70;6.90;;;;;;;1.02;83.82;98995.14;88315;1276;78780;-65
2021/11/30 05:25:51;;;;;;;36.10;12.70;;;;;;;0.95;83.66;98997.13;88270;1278;83022;-62
2021/11/30 05:28:01;;;;;;;60.80;22.60;;;;;;;0.88;83.93;98998.54;88304;1277;98930;-62
2021/11/30 05:30:18;;;;;;;42.90;18.70;;;;;;;0.83;83.80;98998.19;88289;1277;89076;-63
2021/11/30 05:32:27;;;;;;;28.50;14.00;;;;;;;0.80;83.79;99002.08;88295;1277;94551;-66
2021/11/30 05:34:36;;;;;;;29.30;16.40;;;;;;;0.78;83.86;99000.50;88287;1272;77552;-65
2021/11/30 05:36:46;;;;;;;26.00;16.00;;;;;;;0.73;83.92;98998.36;88363;1277;83555;-66
2021/11/30 05:38:58;;;;;;;24.60;15.10;;;;;;;0.67;83.82;99001.33;88301;1272;99194;-67
2021/11/30 05:41:07;;;;;;;24.00;14.90;;;;;;;0.63;83.86;98998.05;88360;1273;88798;-61
2021/11/30 05:43:20;;;;;;;15.40;10.50;;;;;;;0.54;83.88;99000.52;88315;1278;93526;-63
2021/11/30 05:45:29;;;;;;;9.10;6.30;;;;;;;0.44;83.89;99002.50;88305;1272;78079;-62
2021/11/30 05:47:39;;;;;;;8.40;4.80;;;;;;;0.36;83.86;99005.52;88291;1280;80032;-66
2021/11/30 05:49:48;;;;;;;8.60;5.20;;;;;;;0.29;83.94;99011.49;88326;1272;98677;-65
2021/11/30 05:51:59;;;;;;;7.20;4.10;;;;;;;0.28;84.17;99011.48;88315;1279;87742;-65
2021/11/30 05:54:09;;;;;;;4.80;3.50;;;;;;;0.30;84.11;99012.98;88269;1279;95109;-65
2021/11/30 05:56:18;;;;;;;5.10;3.40;;;;;;;0.35;84.30;99014.23;88302;1277;79480;-65
2021/11/30 05:58:29;;;;;;;7.10;4.70;;;;;;;0.38;84.52;99015.89;88280;1272;82134;-65
2021/11/30 06:00:39;;;;;;;8.50;4.30;;;;;;;0.48;84.68;99014.28;88221;1282;98794;-65
2021/11/30 06:03:04;;;;;;;5.80;4.20;;;;;;;0.54;84.62;99013.54;88325;1277;88994;-64
2021/11/30 06:05:14;;;;;;;5.90;4.00;;;;;;;0.60;84.66;99014.15;88278;1283;95477;-64
2021/11/30 06:07:24;;;;;;;6.30;4.50;;;;;;;0.66;84.65;99013.55;88289;1279;78619;-65
2021/11/30 06:09:34;;;;;;;4.90;4.40;;;;;;;0.74;84.65;99016.16;88276;1272;82751;-64
2021/11/30 06:11:45;;;;;;;5.60;4.30;;;;;;;0.79;84.38;99017.95;88301;1275;95882;-67
2021/11/30 06:13:54;;;;;;;6.30;4.50;;;;;;;0.80;84.52;99016.29;88306;1278;89128;-66
2021/11/30 06:16:05;;;;;;;5.90;4.80;;;;;;;0.80;84.61;99020.02;88307;1279;95403;-64
2021/11/30 06:18:14;;;;;;;6.30;5.10;;;;;;;0.76;84.34;99014.58;88284;1278;79475;-66
2021/11/30 06:20:24;;;;;;;7.20;4.80;;;;;;;0.75;84.27;99017.13;88306;1278;82745;-64
2021/11/30 06:22:33;;;;;;;6.40;5.20;;;;;;;0.75;84.27;99014.50;88298;1277;98418;-62
2021/11/30 06:24:43;;;;;;;7.60;5.30;;;;;;;0.70;84.26;99016.63;88278;1278;88822;-63
2021/11/30 06:26:56;;;;;;;8.10;5.50;;;;;;;0.65;84.00;99018.45;88280;1270;94827;-61
2021/11/30 06:29:07;;;;;;;7.30;5.10;;;;;;;0.57;84.16;99016.50;88283;1278;80543;-61
2021/11/30 06:31:17;;;;;;;8.20;5.00;;;;;;;0.54;84.19;99011.94;88318;1278;81634;-65
2021/11/30 06:33:30;;;;;;;6.60;5.30;;;;;;;0.50;84.18;99017.15;88308;1275;97285;-65
2021/11/30 06:35:41;;;;;;;7.70;5.20;;;;;;;0.49;84.22;99016.14;88313;1278;87665;-65
2021/11/30 06:37:50;;;;;;;8.50;5.40;;;;;;;0.53;84.29;99016.08;88299;1271;95885;-65
2021/11/30 06:40:00;;;;;;;9.10;5.80;;;;;;;0.58;84.28;99016.30;88298;1277;77144;-64
2021/11/30 06:42:10;;;;;;;7.20;5.50;;;;;;;0.61;84.31;99016.65;88305;1277;81031;-61
2021/11/30 06:44:19;;;;;;;6.70;5.00;;;;;;;0.60;84.43;99017.44;88301;1278;98643;-61
2021/11/30 06:46:32;;;;;;;7.20;5.40;;;;;;;0.58;84.37;99012.16;88330;1278;89530;-59
2021/11/30 06:48:41;;;;;;;7.30;4.90;;;;;;;0.60;84.31;99011.98;88296;1278;95088;-62
2021/11/30 06:50:51;;;;;;;7.40;4.70;;;;;;;0.64;84.55;99008.80;88301;1275;79681;-60
2021/11/30 06:53:01;;;;;;;8.80;4.80;;;;;;;0.67;84.56;99005.05;88205;1283;82270;-62
2021/11/30 06:55:12;;;;;;;7.10;5.10;;;;;;;0.73;84.62;99007.23;88309;1279;99115;-61
2021/11/30 06:57:22;;;;;;;7.40;5.00;;;;;;;0.77;84.39;99010.58;88319;1276;87290;-62
2021/11/30 06:59:31;;;;;;;8.00;5.70;;;;;;;0.79;84.55;99009.63;88282;1277;94609;-60
2021/11/30 07:01:43;;;;;;;11.90;5.60;;;;;;;0.83;84.56;99012.17;88285;1280;78590;-60
2021/11/30 07:03:53;;;;;;;8.80;5.80;;;;;;;0.86;84.74;99012.42;88316;1277;80997;-60
2021/11/30 07:06:11;;;;;;;9.50;6.90;;;;;;;0.90;84.79;99009.11;88298;1278;99459;-61
2021/11/30 07:08:23;;;;;;;9.20;6.30;;;;;;;0.97;84.61;99004.14;88289;1270;88597;-61
2021/11/30 07:10:38;;;;;;;8.30;6.00;;;;;;;0.96;84.57;99000.68;88300;1277;94052;-60
2021/11/30 07:13:01;;;;;;;10.80;7.20;;;;;;;0.94;84.67;98998.83;88288;1277;76885;-66
2021/11/30 07:15:12;;;;;;;8.70;6.80;;;;;;;0.95;84.66;98997.42;88263;1270;82641;-66
2021/11/30 07:17:21;;;;;;;9.90;6.80;;;;;;;0.96;84.63;98997.29;88325;1277;98915;-64
2021/11/30 07:19:32;;;;;;;10.10;7.00;;;;;;;0.98;84.27;98991.27;88330;1272;88967;-65
2021/11/30 07:21:42;;;;;;;12.80;7.40;;;;;;;0.99;84.35;98985.70;88229;1281;94240;-60
2021/11/30 07:23:52;;;;;;;11.00;7.00;;;;;;;0.99;84.62;98977.88;88299;1278;80875;-60
2021/11/30 07:26:04;;;;;;;11.20;7.60;;;;;;;1.06;84.80;98968.76;88282;1274;81287;-61
2021/11/30 07:28:13;;;;;;;9.40;7.10;;;;;;;1.13;84.59;98963.98;88295;1277;96821;-60
2021/11/30 07:30:23;;;;;;;11.20;7.50;;;;;;;1.19;84.71;98962.40;88321;1278;89673;-60
2021/11/30 07:32:33;;;;;;;9.10;6.30;;;;;;;1.28;84.65;98965.73;88310;1276;94495;-65
2021/11/30 07:34:42;;;;;;;10.50;6.90;;;;;;;1.31;84.82;98961.98;88322;1275;77212;-65
2021/11/30 07:36:51;;;;;;;8.40;7.00;;;;;;;1.37;84.70;98958.85;88292;1277;80805;-64
2021/11/30 07:39:01;;;;;;;11.80;7.30;;;;;;;1.38;84.70;98960.14;88318;1278;98891;-65
2021/11/30 07:41:14;;;;;;;9.90;7.60;;;;;;;1.38;84.70;98961.05;88317;1279;86811;-65
2021/11/30 07:43:27;;;;;;;10.70;7.60;;;;;;;1.40;84.70;98957.23;88301;1277;94289;-65
2021/11/30 07:45:37;;;;;;;10.40;7.30;;;;;;;1.41;84.61;98952.59;88292;1272;81314;-65
2021/11/30 07:47:49;;;;;;;10.50;7.30;;;;;;;1.42;84.58;98946.28;88276;1278;82068;-65
2021/11/30 07:49:58;;;;;;;10.10;7.70;;;;;;;1.42;84.24;98943.63;88300;1278;98878;-65
2021/11/30 07:52:11;;;;;;;10.90;7.50;;;;;;;1.41;84.58;98943.36;88327;1277;87382;-60
2021/11/30 07:54:20;;;;;;;10.50;7.30;;;;;;;1.47;84.68;98944.81;88291;1278;95342;-62
2021/11/30 07:56:31;;;;;;;10.90;6.40;;;;;;;1.54;84.59;98945.05;88282;1277;81261;-60
2021/11/30 07:58:41;;;;;;;9.90;6.80;;;;;;;1.64;84.46;98938.27;88318;1280;83497;-60
2021/11/30 08:00:55;;;;;;;9.50;6.70;;;;;;;1.70;84.61;98932.85;88337;1278;97061;-64
2021/11/30 08:03:03;;;;;;;;;;;;;;;1.72;84.71;98925.30;88176;1277;207984;-64
2021/11/30 08:05:16;;;;;;;12.50;7.90;;;;;;;1.72;84.60;98925.34;88295;1275;92965;-65
2021/11/30 08:07:26;;;;;;;10.30;8.10;;;;;;;1.71;84.41;98918.34;88312;1278;79082;-65
2021/11/30 08:09:36;;;;;;;9.80;7.70;;;;;;;1.65;84.56;98913.90;88286;1278;80036;-66
2021/11/30 08:11:46;;;;;;;11.80;7.20;;;;;;;1.65;84.26;98911.95;88281;1274;98053;-64
2021/11/30 08:13:55;;;;;;;10.10;7.70;;;;;;;1.64;84.27;98910.92;88320;1277;87847;-64
2021/11/30 08:16:05;;;;;;;11.10;7.10;;;;;;;1.64;84.43;98908.44;88262;1277;95574;-66
2021/11/30 08:18:17;;;;;;;8.70;6.90;;;;;;;1.72;84.52;98906.15;88278;1277;81200;-64
2021/11/30 08:20:30;;;;;;;11.70;8.30;;;;;;;1.76;84.64;98903.26;88314;1277;81966;-65
2021/11/30 08:22:41;;;;;;;11.40;7.60;;;;;;;1.84;84.86;98901.90;88313;1279;99270;-61
2021/11/30 08:24:50;;;;;;;9.70;7.30;;;;;;;1.94;84.74;98898.05;88309;1277;87708;-60
2021/11/30 08:26:59;;;;;;;11.50;7.50;;;;;;;1.98;84.78;98896.89;88314;1278;95231;-65
2021/11/30 08:29:08;;;;;;;9.70;7.40;;;;;;;2.01;84.49;98892.30;88302;1272;78609;-66
2021/11/30 08:31:18;;;;;;;9.70;7.30;;;;;;;2.08;84.57;98885.21;88329;1270;80345;-60
2021/11/30 08:33:27;;;;;;;10.30;8.00;;;;;;;2.10;84.27;98883.38;88312;1270;98842;-60
2021/11/30 08:35:37;;;;;;;12.00;8.10;;;;;;;2.08;84.29;98881.55;88303;1275;87305;-61
2021/11/30 08:37:46;;;;;;;10.90;8.80;;;;;;;2.06;84.38;98879.12;88271;1275;95125;-61
2021/11/30 08:39:57;;;;;;;11.80;8.40;;;;;;;2.08;84.23;98876.69;88330;1274;77471;-61
2021/11/30 08:42:13;;;;;;;12.50;8.60;;;;;;;2.09;84.25;98870.71;88308;1277;82292;-60
2021/11/30 08:44:22;;;;;;;11.50;8.50;;;;;;;2.18;84.36;98868.48;88274;1277;97741;-63
2021/11/30 08:46:31;;;;;;;11.00;8.30;;;;;;;2.32;84.07;98861.66;88318;1275;88064;-60
2021/11/30 08:48:41;;;;;;;11.00;8.10;;;;;;;2.42;83.79;98855.41;88295;1272;95939;-60
2021/11/30 08:50:51;;;;;;;9.60;7.20;;;;;;;2.58;83.79;98850.02;88315;1278;79730;-64
2021/11/30 08:53:01;;;;;;;9.60;7.40;;;;;;;2.83;83.68;98844.41;88295;1276;81410;-65
2021/11/30 08:55:13;;;;;;;8.70;6.80;;;;;;;3.09;83.38;98841.38;88304;1271;98400;-63
2021/11/30 08:57:23;;;;;;;9.60;7.30;;;;;;;3.35;83.08;98838.38;88240;1279;88868;-61
2021/11/30 08:59:32;;;;;;;8.70;7.00;;;;;;;3.94;83.16;98833.49;88301;1274;94927;-61
2021/11/30 09:01:43;;;;;;;8.10;6.60;;;;;;;4.48;82.74;98824.27;88280;1272;77870;-65
2021/11/30 09:03:52;;;;;;;9.50;7.10;;;;;;;4.81;80.48;98820.26;88323;1277;81748;-64
2021/11/30 09:06:01;;;;;;;8.40;6.20;;;;;;;4.58;80.52;98812.63;88342;1271;97835;-65
2021/11/30 09:08:11;;;;;;;9.50;6.50;;;;;;;4.40;80.29;98810.92;88300;1275;86695;-66
2021/11/30 09:10:21;;;;;;;7.80;6.40;;;;;;;4.33;79.91;98810.91;88290;1278;95550;-66
2021/11/30 09:12:30;;;;;;;7.80;6.60;;;;;;;4.28;80.27;98802.17;88318;1276;78371;-61
2021/11/30 09:14:40;;;;;;;7.70;6.80;;;;;;;4.18;79.31;98802.97;88306;1278;83128;-64
2021/11/30 09:16:50;;;;;;;8.30;6.20;;;;;;;3.99;79.56;98800.35;88297;1277;99665;-60
2021/11/30 09:19:00;;;;;;;7.80;6.80;;;;;;;3.86;79.05;98797.47;88336;1277;88082;-59
2021/11/30 09:21:09;;;;;;;8.50;7.20;;;;;;;3.72;79.36;98793.11;88306;1272;94930;-64
2021/11/30 09:23:18;;;;;;;7.70;6.80;;;;;;;3.74;79.16;98792.98;88299;1278;77033;-65
2021/11/30 09:25:28;;;;;;;9.20;6.50;;;;;;;3.90;79.48;98785.44;88314;1278;82983;-65
2021/11/30 09:27:38;;;;;;;7.60;5.90;;;;;;;3.96;78.46;98780.95;88297;1271;97536;-64
2021/11/30 09:29:47;;;;;;;6.90;5.60;;;;;;;3.96;78.85;98775.90;88324;1278;86617;-63
2021/11/30 09:31:56;;;;;;;6.60;5.60;;;;;;;4.05;78.34;98777.34;88257;1278;95713;-63
2021/11/30 09:34:07;;;;;;;6.60;5.90;;;;;;;3.96;78.40;98771.80;88279;1270;79209;-62
2021/11/30 09:36:16;;;;;;;7.20;5.80;;;;;;;3.90;78.17;98773.15;88336;1264;81303;-60
2021/11/30 09:38:26;;;;;;;7.30;5.90;;;;;;;3.76;77.61;98761.84;88317;1270;97833;-62
2021/11/30 09:40:38;;;;;;;7.60;6.20;;;;;;;3.57;77.22;98754.36;88307;1272;87857;-62
2021/11/30 09:42:51;;;;;;;7.20;5.70;;;;;;;3.43;76.98;98753.30;88312;1270;93981;-69
2021/11/30 09:45:04;;;;;;;8.50;5.60;;;;;;;3.31;77.32;98753.14;88295;1278;77531;-69
2021/11/30 09:47:14;;;;;;;6.40;5.40;;;;;;;3.28;77.82;98749.56;88295;1278;82393;-70
2021/11/30 09:49:24;;;;;;;6.50;5.00;;;;;;;3.25;77.78;98743.23;88227;1277;100056;-69
2021/11/30 09:51:38;;;;;;;6.30;5.50;;;;;;;3.13;76.79;98739.98;88298;1274;89231;-69
2021/11/30 09:53:48;;;;;;;8.10;6.50;;;;;;;2.95;77.21;98736.05;88292;1272;93883;-69
2021/11/30 09:55:59;;;;;;;8.50;6.30;;;;;;;2.91;77.39;98733.90;88303;1279;79032;-70
2021/11/30 09:58:10;;;;;;;7.30;5.70;;;;;;;2.87;77.77;98727.17;88289;1274;81346;-68
2021/11/30 10:00:22;;;;;;;7.10;5.40;;;;;;;2.87;77.92;98729.94;88278;1274;99121;-69
2021/11/30 10:02:32;;;;;;;7.50;5.00;;;;;;;2.90;77.74;98726.04;88280;1280;89183;-70
2021/11/30 10:04:42;;;;;;;7.10;4.80;;;;;;;2.92;77.90;98720.13;88293;1276;93329;-70
2021/11/30 10:06:54;;;;;;;7.20;4.90;;;;;;;2.97;78.05;98714.55;88310;1280;76441;-63
2021/11/30 10:09:17;;;;;;;8.90;6.00;;;;;;;3.07;77.81;98714.45;88312;1277;81148;-62
2021/11/30 10:11:37;;;;;;;9.50;5.90;;;;;;;3.15;77.97;98708.23;88291;1272;98745;-62
2021/11/30 10:13:47;;;;;;;7.50;5.80;;;;;;;3.24;77.58;98694.45;88281;1277;88718;-62
2021/11/30 10:16:04;;;;;;;6.70;5.50;;;;;;;3.23;77.16;98689.52;88310;1274;94183;-63
2021/11/30 10:18:22;;;;;;;6.60;5.30;;;;;;;3.14;77.15;98685.52;88288;1276;77625;-63
2021/11/30 10:20:33;;;;;;;9.60;6.50;;;;;;;3.04;77.27;98680.63;88295;1272;83160;-63
2021/11/30 10:22:53;;;;;;;7.70;5.90;;;;;;;2.91;77.08;98680.56;88296;1277;98427;-62
2021/11/30 10:25:18;;;;;;;9.40;6.40;;;;;;;2.73;77.44;98676.91;88280;1274;88334;-62
2021/11/30 10:27:34;;;;;;;10.20;7.20;;;;;;;2.61;77.71;98673.23;88268;1277;95267;-63